GASR44 YWLM-YAMB
Flight info
| Callsign | GASR44 |
|---|---|
| Flight time | 1h 37m |
| Altitude | 39000 |
| Route | NELSN DCT WM20C DCT WM11C DCT AM15C/N0471F380 DCT AM112 DCT FAUKS DCT CG DCT RIRBO DCT DULIN |
| Aircraft | A332/H-SDE3GHIJ2J3J5M1RVWXY/LB2D1 |
Departure
| Time | 2026-04-26 09:54 |
|---|---|
| Airport | Newcastle Airport (YWLM) |
Arrival
| Time | 2026-04-26 11:31 |
|---|---|
| Airport | RAAF Base Amberley (YAMB) |
| Time | Latitude | Longitude | Altitude | Speed | Heading |
|---|---|---|---|---|---|
| 2026-04-26 09:32 | -32.79499 | 151.84135 | 39 ft | 0 kts | 234° |
| 2026-04-26 09:43 | -32.79504 | 151.84102 | 39 ft | 5 kts | 295° |
| 2026-04-26 09:43 | -32.79470 | 151.84050 | 39 ft | 8 kts | 314° |
| 2026-04-26 09:43 | -32.79462 | 151.84007 | 39 ft | 4 kts | 261° |
| 2026-04-26 09:43 | -32.79482 | 151.83955 | 39 ft | 9 kts | 238° |
| 2026-04-26 09:44 | -32.79530 | 151.83873 | 39 ft | 11 kts | 234° |
| 2026-04-26 09:44 | -32.79568 | 151.83806 | 39 ft | 0 kts | 248° |
| 2026-04-26 09:44 | -32.79569 | 151.83803 | 39 ft | 0 kts | 253° |
| 2026-04-26 09:44 | -32.79568 | 151.83784 | 39 ft | 7 kts | 275° |
| 2026-04-26 09:45 | -32.79542 | 151.83725 | 39 ft | 5 kts | 309° |
| 2026-04-26 09:45 | -32.79523 | 151.83694 | 39 ft | 4 kts | 306° |
| 2026-04-26 09:45 | -32.79487 | 151.83638 | 39 ft | 15 kts | 307° |
| 2026-04-26 09:45 | -32.79406 | 151.83519 | 39 ft | 19 kts | 309° |
| 2026-04-26 09:46 | -32.79321 | 151.83400 | 39 ft | 18 kts | 310° |
| 2026-04-26 09:46 | -32.79241 | 151.83289 | 39 ft | 17 kts | 309° |
| 2026-04-26 09:46 | -32.79168 | 151.83185 | 39 ft | 15 kts | 309° |
| 2026-04-26 09:46 | -32.79100 | 151.83087 | 39 ft | 14 kts | 309° |
| 2026-04-26 09:47 | -32.79037 | 151.82999 | 39 ft | 13 kts | 311° |
| 2026-04-26 09:47 | -32.78977 | 151.82918 | 39 ft | 12 kts | 310° |
| 2026-04-26 09:47 | -32.78923 | 151.82843 | 39 ft | 11 kts | 310° |
| 2026-04-26 09:47 | -32.78874 | 151.82774 | 39 ft | 10 kts | 310° |
| 2026-04-26 09:48 | -32.78828 | 151.82712 | 39 ft | 9 kts | 310° |
| 2026-04-26 09:48 | -32.78788 | 151.82654 | 39 ft | 8 kts | 309° |
| 2026-04-26 09:48 | -32.78752 | 151.82602 | 39 ft | 7 kts | 309° |
| 2026-04-26 09:48 | -32.78719 | 151.82555 | 39 ft | 6 kts | 309° |
| 2026-04-26 09:49 | -32.78691 | 151.82515 | 39 ft | 6 kts | 310° |
| 2026-04-26 09:49 | -32.78665 | 151.82478 | 39 ft | 5 kts | 311° |
| 2026-04-26 09:49 | -32.78638 | 151.82439 | 39 ft | 10 kts | 303° |
| 2026-04-26 09:49 | -32.78626 | 151.82391 | 39 ft | 0 kts | 269° |
| 2026-04-26 09:50 | -32.78626 | 151.82388 | 39 ft | 0 kts | 262° |
| 2026-04-26 09:51 | -32.78627 | 151.82384 | 39 ft | 4 kts | 255° |
| 2026-04-26 09:51 | -32.78679 | 151.82312 | 39 ft | 9 kts | 223° |
| 2026-04-26 09:51 | -32.78735 | 151.82300 | 39 ft | 5 kts | 148° |
| 2026-04-26 09:52 | -32.78738 | 151.82303 | 39 ft | 0 kts | 137° |
| 2026-04-26 09:53 | -32.78739 | 151.82304 | 39 ft | 0 kts | 136° |
| 2026-04-26 09:53 | -32.78744 | 151.82310 | 39 ft | 7 kts | 136° |
| 2026-04-26 09:53 | -32.78941 | 151.82579 | 39 ft | 85 kts | 130° |
| 2026-04-26 09:53 | -32.79498 | 151.83356 | 40 ft | 161 kts | 131° |
| 2026-04-26 09:54 | -32.80323 | 151.84511 | 505 ft | 187 kts | 132° |
| 2026-04-26 09:54 | -32.81018 | 151.85722 | 1492 ft | 184 kts | 112° |
| 2026-04-26 09:54 | -32.81256 | 151.87181 | 2348 ft | 177 kts | 93° |
| 2026-04-26 09:54 | -32.81093 | 151.88669 | 2516 ft | 201 kts | 62° |
| 2026-04-26 09:55 | -32.80560 | 151.90439 | 2895 ft | 246 kts | 78° |
| 2026-04-26 09:55 | -32.80211 | 151.92401 | 4106 ft | 249 kts | 79° |
| 2026-04-26 09:55 | -32.79872 | 151.94353 | 5380 ft | 248 kts | 80° |
| 2026-04-26 09:55 | -32.79525 | 151.96355 | 6520 ft | 251 kts | 80° |
| 2026-04-26 09:56 | -32.79176 | 151.98383 | 7584 ft | 255 kts | 80° |
| 2026-04-26 09:56 | -32.78819 | 152.00450 | 8589 ft | 261 kts | 81° |
| 2026-04-26 09:56 | -32.78455 | 152.02553 | 9542 ft | 267 kts | 81° |
| 2026-04-26 09:56 | -32.78085 | 152.04724 | 10462 ft | 273 kts | 81° |
| 2026-04-26 09:57 | -32.77707 | 152.06963 | 11289 ft | 282 kts | 81° |
| 2026-04-26 09:57 | -32.77321 | 152.09256 | 12065 ft | 292 kts | 80° |
| 2026-04-26 09:57 | -32.76919 | 152.11626 | 12880 ft | 300 kts | 80° |
| 2026-04-26 09:57 | -32.76506 | 152.14084 | 13643 ft | 308 kts | 80° |
| 2026-04-26 09:58 | -32.76083 | 152.16577 | 14418 ft | 314 kts | 80° |
| 2026-04-26 09:58 | -32.75644 | 152.19151 | 15185 ft | 319 kts | 80° |
| 2026-04-26 09:58 | -32.75145 | 152.22089 | 16113 ft | 325 kts | 80° |
| 2026-04-26 09:58 | -32.74696 | 152.24741 | 16820 ft | 332 kts | 79° |
| 2026-04-26 09:59 | -32.74116 | 152.27428 | 17510 ft | 337 kts | 65° |
| 2026-04-26 09:59 | -32.73069 | 152.29889 | 18181 ft | 341 kts | 70° |
| 2026-04-26 09:59 | -32.72566 | 152.32672 | 18852 ft | 345 kts | 86° |
| 2026-04-26 09:59 | -32.72332 | 152.35516 | 19541 ft | 349 kts | 86° |
| 2026-04-26 10:00 | -32.72081 | 152.38391 | 20156 ft | 355 kts | 86° |
| 2026-04-26 10:00 | -32.71826 | 152.41324 | 20777 ft | 360 kts | 86° |
| 2026-04-26 10:00 | -32.71562 | 152.44362 | 20930 ft | 383 kts | 86° |
| 2026-04-26 10:00 | -32.71278 | 152.47629 | 20919 ft | 410 kts | 86° |
| 2026-04-26 10:01 | -32.70978 | 152.51021 | 20921 ft | 409 kts | 86° |
| 2026-04-26 10:01 | -32.70688 | 152.54298 | 20882 ft | 395 kts | 86° |
| 2026-04-26 10:01 | -32.70407 | 152.57483 | 20885 ft | 380 kts | 86° |
| 2026-04-26 10:01 | -32.70135 | 152.60548 | 20880 ft | 365 kts | 86° |
| 2026-04-26 10:02 | -32.69873 | 152.63495 | 20884 ft | 351 kts | 86° |
| 2026-04-26 10:02 | -32.69622 | 152.66327 | 20881 ft | 340 kts | 86° |
| 2026-04-26 10:02 | -32.69375 | 152.69104 | 20892 ft | 339 kts | 85° |
| 2026-04-26 10:02 | -32.69124 | 152.71910 | 20900 ft | 341 kts | 86° |
| 2026-04-26 10:03 | -32.68870 | 152.74731 | 20904 ft | 341 kts | 86° |
| 2026-04-26 10:03 | -32.68619 | 152.77530 | 20899 ft | 342 kts | 85° |
| 2026-04-26 10:03 | -32.68367 | 152.80319 | 20893 ft | 342 kts | 85° |
| 2026-04-26 10:03 | -32.68112 | 152.83136 | 20908 ft | 341 kts | 85° |
| 2026-04-26 10:04 | -32.67859 | 152.85931 | 20902 ft | 342 kts | 85° |
| 2026-04-26 10:04 | -32.67604 | 152.88748 | 20900 ft | 342 kts | 85° |
| 2026-04-26 10:04 | -32.67350 | 152.91533 | 20902 ft | 341 kts | 85° |
| 2026-04-26 10:04 | -32.67094 | 152.94334 | 20900 ft | 341 kts | 85° |
| 2026-04-26 10:05 | -32.66839 | 152.97127 | 20907 ft | 340 kts | 85° |
| 2026-04-26 10:05 | -32.66584 | 152.99899 | 20898 ft | 340 kts | 85° |
| 2026-04-26 10:05 | -32.66327 | 153.02699 | 20906 ft | 340 kts | 85° |
| 2026-04-26 10:05 | -32.66071 | 153.05487 | 20907 ft | 340 kts | 85° |
| 2026-04-26 10:06 | -32.65813 | 153.08264 | 20904 ft | 341 kts | 85° |
| 2026-04-26 10:06 | -32.65553 | 153.11067 | 20903 ft | 340 kts | 85° |
| 2026-04-26 10:06 | -32.65576 | 153.13840 | 20894 ft | 335 kts | 107° |
| 2026-04-26 10:06 | -32.66452 | 153.16332 | 20942 ft | 326 kts | 131° |
| 2026-04-26 10:07 | -32.68050 | 153.18176 | 20929 ft | 313 kts | 156° |
| 2026-04-26 10:07 | -32.70031 | 153.19031 | 20934 ft | 297 kts | 181° |
| 2026-04-26 10:07 | -32.72017 | 153.18814 | 20928 ft | 284 kts | 206° |
| 2026-04-26 10:07 | -32.73656 | 153.17601 | 20933 ft | 274 kts | 230° |
| 2026-04-26 10:08 | -32.74600 | 153.15680 | 20927 ft | 271 kts | 255° |
| 2026-04-26 10:08 | -32.74880 | 153.13475 | 20941 ft | 273 kts | 262° |
| 2026-04-26 10:09 | -32.75692 | 153.07010 | 20904 ft | 271 kts | 259° |
| 2026-04-26 10:09 | -32.75986 | 153.04807 | 20903 ft | 271 kts | 259° |
| 2026-04-26 10:09 | -32.76281 | 153.02589 | 20907 ft | 272 kts | 259° |
| 2026-04-26 10:09 | -32.76579 | 153.00360 | 20906 ft | 271 kts | 259° |
| 2026-04-26 10:10 | -32.76682 | 152.98129 | 20887 ft | 275 kts | 277° |
| 2026-04-26 10:10 | -32.75941 | 152.96019 | 20938 ft | 285 kts | 302° |
| 2026-04-26 10:10 | -32.74409 | 152.94437 | 20931 ft | 302 kts | 327° |
| 2026-04-26 10:10 | -32.72364 | 152.93742 | 20933 ft | 316 kts | 351° |
| 2026-04-26 10:11 | -32.70135 | 152.94106 | 20931 ft | 330 kts | 16° |
| 2026-04-26 10:11 | -32.68028 | 152.95227 | 20943 ft | 331 kts | 16° |
| 2026-04-26 10:11 | -32.65902 | 152.96205 | 20909 ft | 330 kts | 18° |
| 2026-04-26 10:11 | -32.63772 | 152.97269 | 20909 ft | 331 kts | 18° |
| 2026-04-26 10:12 | -32.61649 | 152.98358 | 20913 ft | 331 kts | 19° |
| 2026-04-26 10:12 | -32.59523 | 152.99466 | 20912 ft | 331 kts | 19° |
| 2026-04-26 10:12 | -32.57410 | 153.00572 | 20918 ft | 330 kts | 19° |
| 2026-04-26 10:12 | -32.55318 | 153.01672 | 20919 ft | 330 kts | 19° |
| 2026-04-26 10:13 | -32.53198 | 153.02789 | 20921 ft | 330 kts | 19° |
| 2026-04-26 10:13 | -32.51083 | 153.03902 | 20926 ft | 330 kts | 19° |
| 2026-04-26 10:13 | -32.48972 | 153.05013 | 20922 ft | 330 kts | 19° |
| 2026-04-26 10:13 | -32.46853 | 153.06128 | 20925 ft | 330 kts | 19° |
| 2026-04-26 10:14 | -32.44747 | 153.07234 | 20923 ft | 330 kts | 19° |
| 2026-04-26 10:14 | -32.42625 | 153.08350 | 20922 ft | 330 kts | 19° |
| 2026-04-26 10:14 | -32.40523 | 153.09453 | 20919 ft | 331 kts | 19° |
| 2026-04-26 10:14 | -32.38403 | 153.10565 | 20921 ft | 330 kts | 19° |
| 2026-04-26 10:15 | -32.36294 | 153.11673 | 20916 ft | 330 kts | 19° |
| 2026-04-26 10:15 | -32.34154 | 153.12795 | 20915 ft | 330 kts | 19° |
| 2026-04-26 10:15 | -32.32039 | 153.13904 | 20918 ft | 331 kts | 19° |
| 2026-04-26 10:15 | -32.29917 | 153.15016 | 20916 ft | 330 kts | 19° |
| 2026-04-26 10:16 | -32.27786 | 153.16132 | 20920 ft | 331 kts | 19° |
| 2026-04-26 10:16 | -32.25681 | 153.17233 | 20918 ft | 330 kts | 20° |
| 2026-04-26 10:16 | -32.23549 | 153.18349 | 20921 ft | 329 kts | 20° |
| 2026-04-26 10:16 | -32.21452 | 153.19444 | 20923 ft | 329 kts | 19° |
| 2026-04-26 10:17 | -32.19342 | 153.20546 | 20920 ft | 329 kts | 19° |
| 2026-04-26 10:17 | -32.17254 | 153.21635 | 20923 ft | 329 kts | 19° |
| 2026-04-26 10:17 | -32.15131 | 153.22743 | 20923 ft | 329 kts | 19° |
| 2026-04-26 10:17 | -32.13041 | 153.23833 | 20925 ft | 330 kts | 20° |
| 2026-04-26 10:18 | -32.10957 | 153.24921 | 20922 ft | 329 kts | 20° |
| 2026-04-26 10:18 | -32.08847 | 153.26019 | 20928 ft | 330 kts | 20° |
| 2026-04-26 10:18 | -32.06731 | 153.27122 | 20918 ft | 330 kts | 19° |
| 2026-04-26 10:18 | -32.04632 | 153.28215 | 20921 ft | 330 kts | 20° |
| 2026-04-26 10:19 | -32.02524 | 153.29312 | 20912 ft | 330 kts | 20° |
| 2026-04-26 10:19 | -32.00413 | 153.30411 | 20913 ft | 330 kts | 20° |
| 2026-04-26 10:19 | -31.98319 | 153.31500 | 20915 ft | 330 kts | 20° |
| 2026-04-26 10:19 | -31.96212 | 153.32594 | 20921 ft | 331 kts | 20° |
| 2026-04-26 10:20 | -31.94093 | 153.33696 | 20907 ft | 330 kts | 20° |
| 2026-04-26 10:20 | -31.91987 | 153.34790 | 20908 ft | 329 kts | 20° |
| 2026-04-26 10:20 | -31.89884 | 153.35879 | 20916 ft | 329 kts | 20° |
| 2026-04-26 10:20 | -31.87812 | 153.36955 | 20909 ft | 329 kts | 20° |
| 2026-04-26 10:21 | -31.85681 | 153.38060 | 20919 ft | 329 kts | 20° |
| 2026-04-26 10:21 | -31.83582 | 153.39146 | 20912 ft | 329 kts | 20° |
| 2026-04-26 10:21 | -31.81502 | 153.40224 | 20910 ft | 328 kts | 20° |
| 2026-04-26 10:21 | -31.79403 | 153.41312 | 20912 ft | 328 kts | 20° |
| 2026-04-26 10:22 | -31.77310 | 153.42394 | 20908 ft | 328 kts | 20° |
| 2026-04-26 10:22 | -31.75202 | 153.43483 | 20919 ft | 328 kts | 20° |
| 2026-04-26 10:22 | -31.73107 | 153.44568 | 20918 ft | 329 kts | 20° |
| 2026-04-26 10:22 | -31.70998 | 153.45654 | 20908 ft | 329 kts | 20° |
| 2026-04-26 10:23 | -31.68904 | 153.46736 | 20896 ft | 330 kts | 20° |
| 2026-04-26 10:23 | -31.66795 | 153.47826 | 20913 ft | 330 kts | 20° |
| 2026-04-26 10:23 | -31.64680 | 153.48917 | 20910 ft | 331 kts | 20° |
| 2026-04-26 10:23 | -31.62588 | 153.49995 | 20920 ft | 330 kts | 20° |
| 2026-04-26 10:24 | -31.60468 | 153.51088 | 20913 ft | 330 kts | 20° |
| 2026-04-26 10:24 | -31.58358 | 153.52174 | 20911 ft | 329 kts | 20° |
| 2026-04-26 10:24 | -31.56253 | 153.53258 | 20910 ft | 329 kts | 20° |
| 2026-04-26 10:24 | -31.54162 | 153.54335 | 20908 ft | 329 kts | 20° |
| 2026-04-26 10:25 | -31.52063 | 153.55414 | 20915 ft | 328 kts | 20° |
| 2026-04-26 10:25 | -31.49968 | 153.56491 | 20914 ft | 329 kts | 20° |
| 2026-04-26 10:25 | -31.47855 | 153.57576 | 20917 ft | 328 kts | 20° |
| 2026-04-26 10:25 | -31.45759 | 153.58652 | 20918 ft | 328 kts | 20° |
| 2026-04-26 10:26 | -31.43659 | 153.59731 | 20913 ft | 328 kts | 20° |
| 2026-04-26 10:26 | -31.41555 | 153.60809 | 20919 ft | 328 kts | 20° |
| 2026-04-26 10:26 | -31.39435 | 153.61897 | 20912 ft | 328 kts | 20° |
| 2026-04-26 10:26 | -31.37347 | 153.62967 | 20912 ft | 329 kts | 20° |
| 2026-04-26 10:27 | -31.35253 | 153.64040 | 20916 ft | 330 kts | 20° |
| 2026-04-26 10:27 | -31.33147 | 153.65118 | 20910 ft | 329 kts | 20° |
| 2026-04-26 10:27 | -31.31040 | 153.66197 | 20908 ft | 329 kts | 20° |
| 2026-04-26 10:27 | -31.28949 | 153.67267 | 20909 ft | 329 kts | 20° |
| 2026-04-26 10:28 | -31.26842 | 153.68344 | 20895 ft | 328 kts | 20° |
| 2026-04-26 10:28 | -31.24741 | 153.69418 | 20903 ft | 328 kts | 20° |
| 2026-04-26 10:28 | -31.22647 | 153.70487 | 20910 ft | 329 kts | 20° |
| 2026-04-26 10:28 | -31.20524 | 153.71571 | 20906 ft | 328 kts | 20° |
| 2026-04-26 10:29 | -31.18441 | 153.72633 | 20914 ft | 328 kts | 20° |
| 2026-04-26 10:29 | -31.16353 | 153.73698 | 20911 ft | 329 kts | 20° |
| 2026-04-26 10:29 | -31.14237 | 153.74777 | 20912 ft | 328 kts | 20° |
| 2026-04-26 10:29 | -31.12159 | 153.75838 | 20907 ft | 327 kts | 20° |
| 2026-04-26 10:30 | -31.10069 | 153.76900 | 20916 ft | 326 kts | 20° |
| 2026-04-26 10:30 | -31.07992 | 153.77957 | 20911 ft | 327 kts | 20° |
| 2026-04-26 10:30 | -31.05877 | 153.79033 | 20916 ft | 328 kts | 20° |
| 2026-04-26 10:30 | -31.03788 | 153.80096 | 20920 ft | 329 kts | 20° |
| 2026-04-26 10:31 | -31.01691 | 153.81161 | 20918 ft | 328 kts | 20° |
| 2026-04-26 10:31 | -30.99572 | 153.82239 | 20913 ft | 328 kts | 20° |
| 2026-04-26 10:31 | -30.97480 | 153.83301 | 20919 ft | 328 kts | 20° |
| 2026-04-26 10:31 | -30.95369 | 153.84374 | 20920 ft | 328 kts | 20° |
| 2026-04-26 10:32 | -30.93288 | 153.85428 | 20916 ft | 329 kts | 20° |
| 2026-04-26 10:32 | -30.91316 | 153.86786 | 20917 ft | 332 kts | 42° |
| 2026-04-26 10:32 | -30.89921 | 153.88927 | 20957 ft | 334 kts | 66° |
| 2026-04-26 10:32 | -30.89342 | 153.91521 | 20934 ft | 331 kts | 91° |
| 2026-04-26 10:33 | -30.89676 | 153.94119 | 20949 ft | 322 kts | 116° |
| 2026-04-26 10:33 | -30.90834 | 153.96277 | 20949 ft | 311 kts | 141° |
| 2026-04-26 10:33 | -30.92596 | 153.97644 | 20949 ft | 299 kts | 166° |
| 2026-04-26 10:33 | -30.94584 | 153.97994 | 20948 ft | 287 kts | 191° |
| 2026-04-26 10:34 | -30.96463 | 153.97310 | 20953 ft | 280 kts | 212° |
| 2026-04-26 10:34 | -30.98151 | 153.96152 | 20935 ft | 280 kts | 212° |
| 2026-04-26 10:34 | -30.99853 | 153.95070 | 20903 ft | 279 kts | 210° |
| 2026-04-26 10:34 | -31.01576 | 153.94016 | 20918 ft | 278 kts | 210° |
| 2026-04-26 10:35 | -31.03275 | 153.92975 | 20924 ft | 279 kts | 211° |
| 2026-04-26 10:35 | -31.05007 | 153.91917 | 20918 ft | 278 kts | 210° |
| 2026-04-26 10:35 | -31.06718 | 153.90868 | 20920 ft | 278 kts | 210° |
| 2026-04-26 10:35 | -31.08254 | 153.89514 | 20915 ft | 274 kts | 233° |
| 2026-04-26 10:36 | -31.09072 | 153.87529 | 20960 ft | 277 kts | 258° |
| 2026-04-26 10:36 | -31.09018 | 153.85277 | 20944 ft | 285 kts | 283° |
| 2026-04-26 10:36 | -31.08075 | 153.83234 | 20955 ft | 295 kts | 307° |
| 2026-04-26 10:36 | -31.06395 | 153.81801 | 20949 ft | 308 kts | 332° |
| 2026-04-26 10:37 | -31.04255 | 153.81290 | 20959 ft | 319 kts | 357° |
| 2026-04-26 10:37 | -31.02030 | 153.81729 | 20969 ft | 326 kts | 12° |
| 2026-04-26 10:37 | -30.99875 | 153.82509 | 20930 ft | 327 kts | 15° |
| 2026-04-26 10:37 | -30.97735 | 153.83409 | 20931 ft | 326 kts | 17° |
| 2026-04-26 10:38 | -30.95623 | 153.84367 | 20935 ft | 326 kts | 18° |
| 2026-04-26 10:38 | -30.93514 | 153.85359 | 20934 ft | 327 kts | 19° |
| 2026-04-26 10:38 | -30.91440 | 153.86508 | 20924 ft | 330 kts | 34° |
| 2026-04-26 10:38 | -30.89847 | 153.88403 | 20974 ft | 333 kts | 59° |
| 2026-04-26 10:39 | -30.88996 | 153.90894 | 20964 ft | 332 kts | 84° |
| 2026-04-26 10:39 | -30.89045 | 153.93532 | 20965 ft | 325 kts | 109° |
| 2026-04-26 10:39 | -30.89972 | 153.95880 | 20968 ft | 314 kts | 134° |
| 2026-04-26 10:39 | -30.91563 | 153.97505 | 20975 ft | 302 kts | 158° |
| 2026-04-26 10:40 | -30.93521 | 153.98173 | 20970 ft | 290 kts | 183° |
| 2026-04-26 10:40 | -30.95471 | 153.97783 | 20970 ft | 280 kts | 208° |
| 2026-04-26 10:40 | -30.97170 | 153.96672 | 20975 ft | 279 kts | 213° |
| 2026-04-26 10:40 | -30.98861 | 153.95578 | 20933 ft | 279 kts | 210° |
| 2026-04-26 10:41 | -31.00582 | 153.94528 | 20928 ft | 278 kts | 210° |
| 2026-04-26 10:41 | -31.02286 | 153.93497 | 20938 ft | 278 kts | 210° |
| 2026-04-26 10:41 | -31.04022 | 153.92444 | 20928 ft | 279 kts | 210° |
| 2026-04-26 10:41 | -31.05754 | 153.91393 | 20926 ft | 278 kts | 210° |
| 2026-04-26 10:42 | -31.07378 | 153.90213 | 20898 ft | 276 kts | 226° |
| 2026-04-26 10:42 | -31.08417 | 153.88377 | 20950 ft | 275 kts | 251° |
| 2026-04-26 10:42 | -31.08619 | 153.86168 | 20938 ft | 282 kts | 276° |
| 2026-04-26 10:42 | -31.07907 | 153.84004 | 20935 ft | 290 kts | 301° |
| 2026-04-26 10:43 | -31.06405 | 153.82384 | 20943 ft | 302 kts | 326° |
| 2026-04-26 10:43 | -31.04376 | 153.81622 | 20943 ft | 315 kts | 351° |
| 2026-04-26 10:43 | -31.02153 | 153.81848 | 20952 ft | 324 kts | 9° |
| 2026-04-26 10:43 | -30.99966 | 153.82553 | 20916 ft | 327 kts | 14° |
| 2026-04-26 10:44 | -30.97817 | 153.83414 | 20909 ft | 326 kts | 17° |
| 2026-04-26 10:44 | -30.95690 | 153.84363 | 20920 ft | 328 kts | 19° |
| 2026-04-26 10:44 | -30.93605 | 153.85451 | 20924 ft | 328 kts | 21° |
| 2026-04-26 10:44 | -30.91536 | 153.86563 | 20933 ft | 329 kts | 21° |
| 2026-04-26 10:45 | -30.89461 | 153.87691 | 20941 ft | 328 kts | 22° |
| 2026-04-26 10:45 | -30.87403 | 153.88814 | 20934 ft | 329 kts | 22° |
| 2026-04-26 10:45 | -30.85334 | 153.89946 | 20937 ft | 328 kts | 22° |
| 2026-04-26 10:45 | -30.83259 | 153.91081 | 20939 ft | 329 kts | 22° |
| 2026-04-26 10:46 | -30.81175 | 153.92221 | 20939 ft | 328 kts | 22° |
| 2026-04-26 10:46 | -30.79102 | 153.93356 | 20942 ft | 328 kts | 22° |
| 2026-04-26 10:46 | -30.77040 | 153.94484 | 20944 ft | 329 kts | 22° |
| 2026-04-26 10:46 | -30.74961 | 153.95619 | 20944 ft | 329 kts | 22° |
| 2026-04-26 10:47 | -30.72904 | 153.96744 | 20943 ft | 328 kts | 22° |
| 2026-04-26 10:47 | -30.70830 | 153.97876 | 20941 ft | 328 kts | 22° |
| 2026-04-26 10:47 | -30.68767 | 153.99002 | 20940 ft | 328 kts | 22° |
| 2026-04-26 10:47 | -30.66699 | 154.00131 | 20945 ft | 328 kts | 22° |
| 2026-04-26 10:48 | -30.64612 | 154.01270 | 20944 ft | 329 kts | 22° |
| 2026-04-26 10:48 | -30.62558 | 154.02388 | 20941 ft | 329 kts | 22° |
| 2026-04-26 10:48 | -30.60486 | 154.03517 | 20939 ft | 327 kts | 22° |
| 2026-04-26 10:48 | -30.58422 | 154.04642 | 20934 ft | 327 kts | 22° |
| 2026-04-26 10:49 | -30.56354 | 154.05768 | 20935 ft | 327 kts | 22° |
| 2026-04-26 10:49 | -30.54311 | 154.06879 | 20932 ft | 327 kts | 22° |
| 2026-04-26 10:49 | -30.52244 | 154.08003 | 20932 ft | 326 kts | 22° |
| 2026-04-26 10:49 | -30.50176 | 154.09128 | 20936 ft | 327 kts | 22° |
| 2026-04-26 10:50 | -30.48108 | 154.10251 | 20934 ft | 327 kts | 22° |
| 2026-04-26 10:50 | -30.46757 | 154.10985 | 20937 ft | 327 kts | 22° |
| 2026-04-26 10:50 | -30.43984 | 154.12489 | 20939 ft | 328 kts | 22° |
| 2026-04-26 10:50 | -30.41931 | 154.13603 | 20937 ft | 328 kts | 22° |
| 2026-04-26 10:51 | -30.39856 | 154.14729 | 20936 ft | 328 kts | 22° |
| 2026-04-26 10:51 | -30.35729 | 154.16965 | 20939 ft | 326 kts | 22° |
| 2026-04-26 10:51 | -30.33656 | 154.18088 | 20940 ft | 326 kts | 22° |
| 2026-04-26 10:52 | -30.31595 | 154.19205 | 20938 ft | 325 kts | 22° |
| 2026-04-26 10:52 | -30.29546 | 154.20312 | 20945 ft | 325 kts | 22° |
| 2026-04-26 10:52 | -30.27487 | 154.21425 | 20941 ft | 326 kts | 22° |
| 2026-04-26 10:52 | -30.25438 | 154.22533 | 20944 ft | 326 kts | 22° |
| 2026-04-26 10:53 | -30.23397 | 154.23636 | 20942 ft | 326 kts | 22° |
| 2026-04-26 10:53 | -30.21318 | 154.24759 | 20943 ft | 326 kts | 22° |
| 2026-04-26 10:53 | -30.19284 | 154.25856 | 20945 ft | 326 kts | 22° |
| 2026-04-26 10:54 | -30.15163 | 154.28079 | 20944 ft | 326 kts | 22° |
| 2026-04-26 10:54 | -30.13097 | 154.29193 | 20943 ft | 326 kts | 22° |
| 2026-04-26 10:54 | -30.11044 | 154.30298 | 20946 ft | 327 kts | 23° |
| 2026-04-26 10:54 | -30.08985 | 154.31407 | 20947 ft | 327 kts | 23° |
| 2026-04-26 10:55 | -30.06902 | 154.32529 | 20946 ft | 327 kts | 22° |
| 2026-04-26 10:55 | -30.04845 | 154.33637 | 20947 ft | 327 kts | 22° |
| 2026-04-26 10:55 | -30.02775 | 154.34749 | 20947 ft | 326 kts | 22° |
| 2026-04-26 10:55 | -30.00733 | 154.35847 | 20945 ft | 325 kts | 22° |
| 2026-04-26 10:56 | -29.98685 | 154.36946 | 20948 ft | 325 kts | 22° |
| 2026-04-26 10:56 | -29.96616 | 154.38058 | 20950 ft | 325 kts | 22° |
| 2026-04-26 10:56 | -29.94583 | 154.39149 | 20946 ft | 324 kts | 23° |
| 2026-04-26 10:56 | -29.92522 | 154.40254 | 20957 ft | 332 kts | 23° |
| 2026-04-26 10:57 | -29.90344 | 154.41420 | 20984 ft | 350 kts | 23° |
| 2026-04-26 10:57 | -29.88088 | 154.42630 | 20968 ft | 368 kts | 23° |
| 2026-04-26 10:57 | -29.85718 | 154.43900 | 20970 ft | 382 kts | 23° |
| 2026-04-26 10:57 | -29.83292 | 154.45200 | 20939 ft | 378 kts | 23° |
| 2026-04-26 10:58 | -29.80939 | 154.46460 | 20935 ft | 371 kts | 23° |
| 2026-04-26 10:58 | -29.78613 | 154.47705 | 20943 ft | 369 kts | 23° |
| 2026-04-26 10:58 | -29.76268 | 154.48958 | 20949 ft | 369 kts | 23° |
| 2026-04-26 10:58 | -29.73945 | 154.50200 | 20950 ft | 370 kts | 23° |
| 2026-04-26 10:59 | -29.71607 | 154.51448 | 20952 ft | 370 kts | 23° |
| 2026-04-26 10:59 | -29.69249 | 154.52707 | 20954 ft | 370 kts | 23° |
| 2026-04-26 10:59 | -29.66940 | 154.53940 | 20954 ft | 370 kts | 23° |
| 2026-04-26 10:59 | -29.64589 | 154.55194 | 20952 ft | 369 kts | 23° |
| 2026-04-26 11:00 | -29.62270 | 154.56429 | 20954 ft | 368 kts | 23° |
| 2026-04-26 11:00 | -29.59938 | 154.57671 | 20955 ft | 368 kts | 23° |
| 2026-04-26 11:00 | -29.57596 | 154.58917 | 20958 ft | 368 kts | 23° |
| 2026-04-26 11:00 | -29.55290 | 154.60144 | 20955 ft | 368 kts | 23° |
| 2026-04-26 11:01 | -29.52933 | 154.61400 | 20955 ft | 368 kts | 24° |
| 2026-04-26 11:01 | -29.50610 | 154.62634 | 20954 ft | 369 kts | 23° |
| 2026-04-26 11:01 | -29.48284 | 154.63869 | 20953 ft | 369 kts | 23° |
| 2026-04-26 11:01 | -29.45965 | 154.65100 | 20953 ft | 369 kts | 23° |
| 2026-04-26 11:02 | -29.43611 | 154.66319 | 20941 ft | 368 kts | 18° |
| 2026-04-26 11:02 | -29.41135 | 154.66847 | 20956 ft | 363 kts | 356° |
| 2026-04-26 11:02 | -29.38693 | 154.66370 | 20973 ft | 356 kts | 335° |
| 2026-04-26 11:02 | -29.36499 | 154.65112 | 20980 ft | 352 kts | 327° |
| 2026-04-26 11:03 | -29.34338 | 154.63774 | 20950 ft | 353 kts | 327° |
| 2026-04-26 11:03 | -29.32161 | 154.62421 | 20948 ft | 351 kts | 327° |
| 2026-04-26 11:03 | -29.30012 | 154.61083 | 20944 ft | 350 kts | 327° |
| 2026-04-26 11:03 | -29.27876 | 154.59749 | 20955 ft | 360 kts | 327° |
| 2026-04-26 11:04 | -29.25597 | 154.58328 | 20967 ft | 377 kts | 327° |
| 2026-04-26 11:04 | -29.23246 | 154.56863 | 20957 ft | 392 kts | 328° |
| 2026-04-26 11:04 | -29.20804 | 154.55344 | 20956 ft | 406 kts | 328° |
| 2026-04-26 11:04 | -29.18329 | 154.53806 | 20943 ft | 406 kts | 328° |
| 2026-04-26 11:05 | -29.15856 | 154.52271 | 20936 ft | 399 kts | 328° |
| 2026-04-26 11:05 | -29.13403 | 154.50745 | 20939 ft | 396 kts | 328° |
| 2026-04-26 11:05 | -29.11003 | 154.49255 | 20942 ft | 399 kts | 328° |
| 2026-04-26 11:05 | -29.08522 | 154.47711 | 20961 ft | 413 kts | 328° |
| 2026-04-26 11:06 | -29.05931 | 154.46103 | 20953 ft | 426 kts | 328° |
| 2026-04-26 11:06 | -29.03308 | 154.44478 | 20957 ft | 437 kts | 328° |
| 2026-04-26 11:06 | -29.00589 | 154.42793 | 20956 ft | 447 kts | 328° |
| 2026-04-26 11:06 | -28.97824 | 154.41080 | 20950 ft | 457 kts | 328° |
| 2026-04-26 11:07 | -28.95003 | 154.39336 | 20968 ft | 460 kts | 328° |
| 2026-04-26 11:07 | -28.92216 | 154.37611 | 20918 ft | 454 kts | 328° |
| 2026-04-26 11:07 | -28.89477 | 154.35919 | 20944 ft | 449 kts | 328° |
| 2026-04-26 11:07 | -28.86694 | 154.34199 | 20947 ft | 448 kts | 329° |
| 2026-04-26 11:08 | -28.83986 | 154.32527 | 20948 ft | 448 kts | 328° |
| 2026-04-26 11:08 | -28.81238 | 154.30830 | 20949 ft | 448 kts | 329° |
| 2026-04-26 11:08 | -28.78492 | 154.29137 | 20947 ft | 449 kts | 328° |
| 2026-04-26 11:08 | -28.75737 | 154.27438 | 20946 ft | 448 kts | 329° |
| 2026-04-26 11:09 | -28.72979 | 154.25740 | 20946 ft | 449 kts | 329° |
| 2026-04-26 11:09 | -28.70260 | 154.24066 | 20947 ft | 449 kts | 329° |
| 2026-04-26 11:09 | -28.67480 | 154.22357 | 20947 ft | 449 kts | 329° |
| 2026-04-26 11:09 | -28.64726 | 154.20662 | 20944 ft | 449 kts | 329° |
| 2026-04-26 11:10 | -28.61974 | 154.18973 | 20948 ft | 449 kts | 329° |
| 2026-04-26 11:10 | -28.59239 | 154.17291 | 20946 ft | 450 kts | 329° |
| 2026-04-26 11:10 | -28.56677 | 154.15274 | 20922 ft | 444 kts | 314° |
| 2026-04-26 11:10 | -28.54753 | 154.12553 | 20940 ft | 438 kts | 298° |
| 2026-04-26 11:11 | -28.53223 | 154.09557 | 20963 ft | 438 kts | 297° |
| 2026-04-26 11:11 | -28.51687 | 154.06586 | 20943 ft | 438 kts | 297° |
| 2026-04-26 11:11 | -28.50139 | 154.03606 | 20934 ft | 437 kts | 298° |
| 2026-04-26 11:11 | -28.48593 | 154.00635 | 20948 ft | 437 kts | 298° |
| 2026-04-26 11:12 | -28.47038 | 153.97652 | 20943 ft | 436 kts | 297° |
| 2026-04-26 11:12 | -28.45506 | 153.94713 | 20942 ft | 437 kts | 298° |
| 2026-04-26 11:12 | -28.43948 | 153.91728 | 20938 ft | 437 kts | 298° |
| 2026-04-26 11:12 | -28.42413 | 153.88789 | 20942 ft | 437 kts | 298° |
| 2026-04-26 11:13 | -28.40814 | 153.85811 | 20933 ft | 439 kts | 301° |
| 2026-04-26 11:13 | -28.38966 | 153.83048 | 20946 ft | 440 kts | 304° |
| 2026-04-26 11:13 | -28.37112 | 153.80298 | 20944 ft | 441 kts | 304° |
| 2026-04-26 11:13 | -28.35251 | 153.77542 | 20947 ft | 440 kts | 304° |
| 2026-04-26 11:14 | -28.33377 | 153.74767 | 20935 ft | 441 kts | 304° |
| 2026-04-26 11:14 | -28.31522 | 153.72020 | 20945 ft | 441 kts | 304° |
| 2026-04-26 11:14 | -28.29666 | 153.69273 | 20944 ft | 441 kts | 304° |
| 2026-04-26 11:14 | -28.27775 | 153.66478 | 20943 ft | 441 kts | 304° |
| 2026-04-26 11:15 | -28.25914 | 153.63728 | 20939 ft | 441 kts | 304° |
| 2026-04-26 11:15 | -28.24053 | 153.60979 | 20940 ft | 441 kts | 304° |
| 2026-04-26 11:15 | -28.22169 | 153.58197 | 20946 ft | 441 kts | 304° |
| 2026-04-26 11:15 | -28.20313 | 153.55460 | 20946 ft | 441 kts | 304° |
| 2026-04-26 11:16 | -28.18437 | 153.52696 | 20946 ft | 440 kts | 304° |
| 2026-04-26 11:16 | -28.16646 | 153.49902 | 20932 ft | 437 kts | 298° |
| 2026-04-26 11:16 | -28.15208 | 153.46898 | 20949 ft | 437 kts | 295° |
| 2026-04-26 11:16 | -28.13770 | 153.43828 | 20954 ft | 438 kts | 295° |
| 2026-04-26 11:17 | -28.12338 | 153.40807 | 20943 ft | 438 kts | 296° |
| 2026-04-26 11:17 | -28.10778 | 153.37819 | 20951 ft | 438 kts | 298° |
| 2026-04-26 11:17 | -28.09211 | 153.34859 | 20947 ft | 440 kts | 298° |
| 2026-04-26 11:17 | -28.07637 | 153.31886 | 20965 ft | 440 kts | 298° |
| 2026-04-26 11:18 | -28.06067 | 153.28922 | 20957 ft | 440 kts | 298° |
| 2026-04-26 11:18 | -28.04494 | 153.25949 | 20961 ft | 440 kts | 298° |
| 2026-04-26 11:18 | -28.02921 | 153.22983 | 20948 ft | 440 kts | 298° |
| 2026-04-26 11:18 | -28.01342 | 153.20004 | 20944 ft | 440 kts | 298° |
| 2026-04-26 11:19 | -27.99778 | 153.17059 | 20798 ft | 443 kts | 298° |
| 2026-04-26 11:19 | -27.98186 | 153.14061 | 20353 ft | 437 kts | 298° |
| 2026-04-26 11:19 | -27.96658 | 153.11171 | 19971 ft | 425 kts | 298° |
| 2026-04-26 11:19 | -27.95155 | 153.08321 | 19582 ft | 414 kts | 298° |
| 2026-04-26 11:20 | -27.93701 | 153.05562 | 19205 ft | 404 kts | 298° |
| 2026-04-26 11:20 | -27.92742 | 153.03749 | 18951 ft | 398 kts | 298° |
| 2026-04-26 11:20 | -27.90896 | 153.00249 | 18466 ft | 387 kts | 298° |
| 2026-04-26 11:20 | -27.89524 | 152.97646 | 18098 ft | 379 kts | 298° |
| 2026-04-26 11:21 | -27.88187 | 152.95116 | 17720 ft | 372 kts | 298° |
| 2026-04-26 11:21 | -27.86871 | 152.92621 | 17337 ft | 368 kts | 298° |
| 2026-04-26 11:21 | -27.85564 | 152.90134 | 16967 ft | 368 kts | 298° |
| 2026-04-26 11:21 | -27.84270 | 152.87674 | 16600 ft | 366 kts | 298° |
| 2026-04-26 11:22 | -27.82969 | 152.85199 | 16220 ft | 366 kts | 298° |
| 2026-04-26 11:22 | -27.81670 | 152.82730 | 15731 ft | 365 kts | 298° |
| 2026-04-26 11:22 | -27.80376 | 152.80272 | 15255 ft | 362 kts | 298° |
| 2026-04-26 11:22 | -27.79091 | 152.77843 | 14761 ft | 360 kts | 298° |
| 2026-04-26 11:23 | -27.77808 | 152.75424 | 14275 ft | 358 kts | 298° |
| 2026-04-26 11:23 | -27.76538 | 152.73029 | 13800 ft | 356 kts | 298° |
| 2026-04-26 11:23 | -27.75270 | 152.70638 | 13303 ft | 354 kts | 297° |
| 2026-04-26 11:23 | -27.74016 | 152.68269 | 12817 ft | 352 kts | 298° |
| 2026-04-26 11:24 | -27.72744 | 152.65897 | 12123 ft | 358 kts | 301° |
| 2026-04-26 11:24 | -27.71123 | 152.63756 | 11412 ft | 366 kts | 315° |
| 2026-04-26 11:24 | -27.68950 | 152.62221 | 10693 ft | 374 kts | 335° |
| 2026-04-26 11:24 | -27.66445 | 152.61424 | 10002 ft | 377 kts | 344° |
| 2026-04-26 11:25 | -27.63890 | 152.60702 | 9294 ft | 379 kts | 344° |
| 2026-04-26 11:25 | -27.61318 | 152.59975 | 8562 ft | 380 kts | 344° |
| 2026-04-26 11:25 | -27.58743 | 152.59245 | 7829 ft | 381 kts | 344° |
| 2026-04-26 11:25 | -27.56186 | 152.58511 | 7054 ft | 377 kts | 344° |
| 2026-04-26 11:26 | -27.53703 | 152.57793 | 6141 ft | 363 kts | 344° |
| 2026-04-26 11:26 | -27.51281 | 152.57220 | 5357 ft | 350 kts | 354° |
| 2026-04-26 11:26 | -27.48909 | 152.57503 | 4566 ft | 337 kts | 17° |
| 2026-04-26 11:26 | -27.46922 | 152.58694 | 3760 ft | 314 kts | 40° |
| 2026-04-26 11:27 | -27.45641 | 152.60535 | 3065 ft | 293 kts | 66° |
| 2026-04-26 11:27 | -27.45312 | 152.62645 | 2969 ft | 257 kts | 96° |
| 2026-04-26 11:27 | -27.46102 | 152.64325 | 2403 ft | 246 kts | 146° |
| 2026-04-26 11:27 | -27.47611 | 152.64595 | 2174 ft | 213 kts | 205° |
| 2026-04-26 11:28 | -27.48915 | 152.63939 | 1738 ft | 202 kts | 195° |
| 2026-04-26 11:28 | -27.50260 | 152.64186 | 1912 ft | 209 kts | 160° |
| 2026-04-26 11:28 | -27.51627 | 152.64940 | 1895 ft | 209 kts | 153° |
| 2026-04-26 11:28 | -27.52791 | 152.65662 | 1952 ft | 170 kts | 150° |
| 2026-04-26 11:29 | -27.53729 | 152.66318 | 1772 ft | 155 kts | 146° |
| 2026-04-26 11:29 | -27.54713 | 152.66971 | 1573 ft | 169 kts | 151° |
| 2026-04-26 11:29 | -27.55741 | 152.67549 | 1524 ft | 170 kts | 158° |
| 2026-04-26 11:29 | -27.56838 | 152.68118 | 1333 ft | 176 kts | 154° |
| 2026-04-26 11:30 | -27.57957 | 152.68704 | 1008 ft | 173 kts | 154° |
| 2026-04-26 11:30 | -27.58682 | 152.69078 | 830 ft | 168 kts | 155° |
| 2026-04-26 11:30 | -27.60089 | 152.69672 | 515 ft | 155 kts | 161° |
| 2026-04-26 11:30 | -27.61080 | 152.70070 | 343 ft | 145 kts | 160° |
| 2026-04-26 11:31 | -27.62035 | 152.70467 | 177 ft | 146 kts | 159° |
| 2026-04-26 11:31 | -27.62840 | 152.70830 | 124 ft | 85 kts | 158° |
| 2026-04-26 11:31 | -27.63152 | 152.70956 | 124 ft | 35 kts | 161° |
| 2026-04-26 11:31 | -27.63326 | 152.71030 | 124 ft | 7 kts | 161° |
| 2026-04-26 11:32 | -27.63380 | 152.70998 | 124 ft | 14 kts | 261° |
| 2026-04-26 11:32 | -27.63367 | 152.70892 | 124 ft | 13 kts | 287° |
| 2026-04-26 11:32 | -27.63291 | 152.70807 | 124 ft | 19 kts | 336° |
| 2026-04-26 11:32 | -27.63147 | 152.70741 | 124 ft | 25 kts | 338° |
| 2026-04-26 11:33 | -27.62980 | 152.70668 | 124 ft | 19 kts | 340° |
| 2026-04-26 11:33 | -27.62856 | 152.70615 | 124 ft | 21 kts | 338° |
| 2026-04-26 11:33 | -27.62693 | 152.70541 | 124 ft | 27 kts | 339° |
| 2026-04-26 11:33 | -27.62594 | 152.70499 | 124 ft | 8 kts | 338° |
| 2026-04-26 11:34 | -27.62549 | 152.70464 | 124 ft | 7 kts | 298° |
| 2026-04-26 11:34 | -27.62554 | 152.70407 | 124 ft | 7 kts | 251° |
| 2026-04-26 11:34 | -27.62570 | 152.70358 | 124 ft | 6 kts | 249° |
| 2026-04-26 11:34 | -27.62586 | 152.70312 | 124 ft | 5 kts | 249° |
| 2026-04-26 11:35 | -27.62580 | 152.70273 | 124 ft | 5 kts | 307° |
| 2026-04-26 11:35 | -27.62562 | 152.70258 | 124 ft | 1 kts | 332° |
| 2026-04-26 11:35 | -27.62561 | 152.70258 | 124 ft | 0 kts | 332° |